Flight Track Log - Related Links

Times and Time Zones

All times are in EDT time to prevent confusion due to time zone crossing. See the RPA4937 flight status page for this flight to view local times or setup timezone preferences in your user account.

Time Position Orientation Groundspeed Altitude Reporting Facility
EDT Latitude Longitude Course Direction KTS MPH feet Rate Location/Type
Mon 08:37:20 AM 40.7833 -74.1167 37° Northeast 246 283 4,100  Level New York TRACON
Mon 08:38:20 AM 40.8333 -74.1833 315° West 257 296 5,800 905 Climbing New York TRACON
Mon 08:39:00 AM 41.0821 -74.1348 North  Level FlightAware Approximate
Mon 08:39:26 AM 40.9167 -74.1667 North 271 312 6,000  Level New York TRACON
Mon 08:40:00 AM 41.1592 -74.0921 74° East  Level FlightAware Approximate
Mon 08:40:32 AM 41.0000 -74.1667 360° North 276 318 6,000  Level New York TRACON
Mon 08:41:00 AM 41.1833 -73.9634 90° East  Level FlightAware Approximate
Mon 08:41:32 AM 41.0667 -74.1500 11° North 277 319 6,000  Level New York TRACON
Mon 08:42:00 AM 41.2154 -73.8513 37° Northeast  Level FlightAware Approximate
Mon 08:43:14 AM 41.1669 -74.1028 20° North 266 306 6,000  Level Boston Center
Mon 08:45:14 AM 41.2136 -73.8833 74° East 271 312 8,000 1,333 Climbing Boston Center
Mon 08:46:14 AM 41.2336 -73.7953 73° East 276 318 10,000 2,000 Climbing Boston Center
Mon 08:47:14 AM 41.2578 -73.6853 74° East 276 318 12,000 1,800 Climbing Boston Center
Mon 08:48:14 AM 41.2775 -73.5947 74° East 279 321 13,600 1,000 Climbing Boston Center
Mon 08:50:14 AM 41.3978 -73.4281 46° Northeast 310 357 15,000 467 Climbing Boston Center
Mon 08:51:14 AM 41.4694 -73.3322 45° Northeast 332 382 15,000 91 Level Boston Center
Mon 08:52:26 AM 41.5536 -73.2194 45° Northeast 337 388 15,200 682 Climbing Boston Center
Mon 08:53:26 AM 41.6106 -73.1425 45° Northeast 332 382 16,500 900 Climbing Boston Center
Mon 08:54:26 AM 41.6942 -73.0656 34° Northeast 326 375 17,000 250 Climbing Boston Center
Mon 08:55:26 AM 41.7736 -73.0136 26° Northeast 344 396 17,000  Level Boston Center
Mon 08:57:00 AM 41.8867 -72.9281 29° Northeast  Level FlightAware Approximate
Mon 08:58:26 AM 42.0517 -72.8175 28° Northeast 358 412 17,000  Level Boston Center
Mon 08:59:26 AM 42.1331 -72.7619 27° Northeast 358 412 17,000  Level Boston Center
Mon 09:00:26 AM 42.2314 -72.6925 28° Northeast 352 405 17,000  Level Boston Center
Mon 09:01:26 AM 42.3189 -72.6281 29° Northeast 352 405 17,000  Level Boston Center
Mon 09:03:26 AM 42.4669 -72.4514 41° Northeast 347 399 17,000  Level Boston Center
Mon 09:04:00 AM 42.3998 -72.5638 28° Northeast  Level FlightAware Approximate
Mon 09:04:26 AM 42.5378 -72.3583 44° Northeast 347 399 17,000  Level Boston Center
Mon 09:06:26 AM 42.6814 -72.1747 43° Northeast 347 399 17,000  Level Boston Center
Mon 09:07:26 AM 42.7458 -72.0925 43° Northeast 347 399 17,000  Level Boston Center
Mon 09:08:26 AM 42.8247 -71.9900 44° Northeast 347 399 17,000  Level Boston Center
Mon 09:09:27 AM 42.8889 -71.9072 43° Northeast 347 399 17,000 -117 Level Boston Center
Mon 09:11:00 AM 42.9714 -71.7699 51° Northeast  Level FlightAware Approximate
Mon 09:14:26 AM 43.2525 -71.4281 65° Northeast 349 402 16,300  Level Boston Center
Mon 09:15:26 AM 43.3225 -71.3356 44° Northeast 349 402 14,700 -1,650 Descending Boston Center
Mon 09:16:26 AM 43.3883 -71.2458 45° Northeast 343 395 13,000 -1,233 Descending Boston Center
Mon 09:18:00 AM 43.3908 -71.2096 43° Northeast  Level FlightAware Approximate
Mon 09:18:26 AM 43.4922 -71.0492 54° Northeast 316 364 11,000  Level Boston Center
Mon 09:19:00 AM 43.4512 -71.1298 65° Northeast  Level FlightAware Approximate
Mon 09:19:26 AM 43.5200 -70.9311 72° East 317 365 10,400  Level Boston Center
Mon 09:21:00 AM 43.5525 -70.7545 75° East  Level FlightAware Approximate
Mon 09:21:26 AM 43.5192 -70.7192 75° East 274 315 7,900  Level Boston Center
Mon 09:23:00 AM 43.5863 -70.5578 65° Northeast  Level FlightAware Approximate
Mon 09:23:26 AM 43.5097 -70.5164 65° Northeast 269 310 5,100  Level Boston Center
Mon 09:25:00 AM 43.5979 -70.3818 77° East  Level Estimated
Mon 09:26:26 AM 43.5658 -70.2767 77° East 223 257 2,300  Level Boston Center
Mon 09:28:26 AM 43.6403 -70.2425 18° North 137 158 1,100 -600 Descending Boston Center

Login

Don't have an account? Register now (free) for customized features, flight alerts, and more!